sensor_id;sensor_type;location;lat;lon;timestamp;P1;durP1;ratioP1;P2;durP2;ratioP2
8938;SDS011;4504;48.810;9.172;2023-06-24T07:06:01;118.00;;;3.90;;
8938;SDS011;4504;48.810;9.172;2023-06-24T07:08:28;116.93;;;4.03;;
8938;SDS011;4504;48.810;9.172;2023-06-24T07:10:55;118.87;;;4.10;;
8938;SDS011;4504;48.810;9.172;2023-06-24T07:13:22;116.50;;;3.73;;
8938;SDS011;4504;48.810;9.172;2023-06-24T07:15:48;115.57;;;3.50;;
8938;SDS011;4504;48.810;9.172;2023-06-24T07:18:15;116.13;;;4.03;;
8938;SDS011;4504;48.810;9.172;2023-06-24T07:20:42;114.47;;;3.60;;
8938;SDS011;4504;48.810;9.172;2023-06-24T07:23:11;115.40;;;3.90;;
8938;SDS011;4504;48.810;9.172;2023-06-24T07:25:38;112.27;;;3.60;;
8938;SDS011;4504;48.810;9.172;2023-06-24T07:28:05;115.77;;;3.50;;
8938;SDS011;4504;48.810;9.172;2023-06-24T07:30:32;114.50;;;3.73;;
8938;SDS011;4504;48.810;9.172;2023-06-24T07:32:59;114.80;;;3.93;;
8938;SDS011;4504;48.810;9.172;2023-06-24T07:35:30;115.03;;;3.70;;
8938;SDS011;4504;48.810;9.172;2023-06-24T07:37:57;114.63;;;3.60;;
8938;SDS011;4504;48.810;9.172;2023-06-24T07:40:26;112.90;;;3.70;;
8938;SDS011;4504;48.810;9.172;2023-06-24T07:42:53;115.57;;;3.90;;
8938;SDS011;4504;48.810;9.172;2023-06-24T07:45:20;113.80;;;3.63;;
8938;SDS011;4504;48.810;9.172;2023-06-24T07:47:47;112.87;;;3.57;;
8938;SDS011;4504;48.810;9.172;2023-06-24T07:50:14;114.47;;;4.07;;
8938;SDS011;4504;48.810;9.172;2023-06-24T07:52:41;113.07;;;3.63;;
8938;SDS011;4504;48.810;9.172;2023-06-24T07:55:08;114.87;;;3.77;;
8938;SDS011;4504;48.810;9.172;2023-06-24T07:57:36;112.90;;;3.30;;
8938;SDS011;4504;48.810;9.172;2023-06-24T08:00:05;115.10;;;4.07;;
8938;SDS011;4504;48.810;9.172;2023-06-24T08:02:38;111.37;;;3.40;;
8938;SDS011;4504;48.810;9.172;2023-06-24T08:05:06;112.93;;;3.87;;
8938;SDS011;4504;48.810;9.172;2023-06-24T08:07:34;112.43;;;3.30;;
8938;SDS011;4504;48.810;9.172;2023-06-24T08:10:01;112.60;;;3.50;;
8938;SDS011;4504;48.810;9.172;2023-06-24T08:12:29;112.87;;;3.73;;
8938;SDS011;4504;48.810;9.172;2023-06-24T08:14:57;111.80;;;3.30;;
8938;SDS011;4504;48.810;9.172;2023-06-24T08:17:24;114.17;;;3.80;;
8938;SDS011;4504;48.810;9.172;2023-06-24T08:19:51;112.67;;;3.40;;
8938;SDS011;4504;48.810;9.172;2023-06-24T08:22:18;111.37;;;2.87;;
8938;SDS011;4504;48.810;9.172;2023-06-24T08:24:45;112.47;;;3.63;;
8938;SDS011;4504;48.810;9.172;2023-06-24T08:27:12;111.17;;;3.27;;
8938;SDS011;4504;48.810;9.172;2023-06-24T08:29:39;110.60;;;3.10;;
8938;SDS011;4504;48.810;9.172;2023-06-24T08:32:07;111.40;;;3.50;;
8938;SDS011;4504;48.810;9.172;2023-06-24T08:34:34;109.80;;;3.00;;
8938;SDS011;4504;48.810;9.172;2023-06-24T08:37:01;110.40;;;3.23;;
8938;SDS011;4504;48.810;9.172;2023-06-24T08:39:28;110.10;;;3.40;;
8938;SDS011;4504;48.810;9.172;2023-06-24T08:41:55;112.70;;;4.07;;
8938;SDS011;4504;48.810;9.172;2023-06-24T08:44:22;111.17;;;3.40;;
8938;SDS011;4504;48.810;9.172;2023-06-24T08:46:49;111.37;;;3.83;;
8938;SDS011;4504;48.810;9.172;2023-06-24T08:49:21;110.67;;;3.07;;
8938;SDS011;4504;48.810;9.172;2023-06-24T08:51:54;110.07;;;3.00;;
8938;SDS011;4504;48.810;9.172;2023-06-24T08:54:30;109.23;;;2.90;;
8938;SDS011;4504;48.810;9.172;2023-06-24T08:56:58;110.93;;;3.47;;
8938;SDS011;4504;48.810;9.172;2023-06-24T08:59:26;110.80;;;3.40;;
8938;SDS011;4504;48.810;9.172;2023-06-24T09:01:53;110.00;;;2.90;;
8938;SDS011;4504;48.810;9.172;2023-06-24T09:04:22;108.80;;;2.77;;
8938;SDS011;4504;48.810;9.172;2023-06-24T09:06:49;109.77;;;3.03;;
8938;SDS011;4504;48.810;9.172;2023-06-24T09:09:19;110.10;;;3.30;;
8938;SDS011;4504;48.810;9.172;2023-06-24T09:11:53;109.93;;;2.87;;
8938;SDS011;4504;48.810;9.172;2023-06-24T09:14:21;110.70;;;3.20;;
8938;SDS011;4504;48.810;9.172;2023-06-24T09:16:52;109.40;;;3.07;;
8938;SDS011;4504;48.810;9.172;2023-06-24T09:19:21;108.60;;;3.00;;
8938;SDS011;4504;48.810;9.172;2023-06-24T09:21:48;110.00;;;2.87;;
8938;SDS011;4504;48.810;9.172;2023-06-24T09:24:16;109.83;;;3.20;;
8938;SDS011;4504;48.810;9.172;2023-06-24T09:26:44;110.80;;;3.00;;
8938;SDS011;4504;48.810;9.172;2023-06-24T09:29:11;108.57;;;3.10;;
8938;SDS011;4504;48.810;9.172;2023-06-24T09:31:46;107.87;;;2.80;;
8938;SDS011;4504;48.810;9.172;2023-06-24T09:34:18;109.50;;;2.70;;
8938;SDS011;4504;48.810;9.172;2023-06-24T09:36:50;108.90;;;2.80;;
8938;SDS011;4504;48.810;9.172;2023-06-24T09:39:18;110.40;;;2.83;;
8938;SDS011;4504;48.810;9.172;2023-06-24T09:41:48;107.97;;;2.90;;
8938;SDS011;4504;48.810;9.172;2023-06-24T09:44:16;109.17;;;3.20;;
8938;SDS011;4504;48.810;9.172;2023-06-24T09:46:44;107.27;;;2.70;;
8938;SDS011;4504;48.810;9.172;2023-06-24T09:49:11;107.57;;;2.93;;
8938;SDS011;4504;48.810;9.172;2023-06-24T09:51:39;108.67;;;2.90;;
8938;SDS011;4504;48.810;9.172;2023-06-24T09:54:11;108.57;;;2.53;;
8938;SDS011;4504;48.810;9.172;2023-06-24T09:56:40;107.77;;;2.50;;
8938;SDS011;4504;48.810;9.172;2023-06-24T09:59:10;109.77;;;2.73;;
8938;SDS011;4504;48.810;9.172;2023-06-24T10:01:39;108.53;;;2.80;;
8938;SDS011;4504;48.810;9.172;2023-06-24T10:04:07;108.13;;;3.10;;
8938;SDS011;4504;48.810;9.172;2023-06-24T10:06:34;107.67;;;2.53;;
8938;SDS011;4504;48.810;9.172;2023-06-24T10:09:01;106.83;;;2.30;;
8938;SDS011;4504;48.810;9.172;2023-06-24T10:11:30;107.50;;;2.57;;
8938;SDS011;4504;48.810;9.172;2023-06-24T10:13:57;108.50;;;2.60;;
8938;SDS011;4504;48.810;9.172;2023-06-24T10:16:24;107.63;;;2.63;;
8938;SDS011;4504;48.810;9.172;2023-06-24T10:18:51;109.20;;;2.93;;
8938;SDS011;4504;48.810;9.172;2023-06-24T10:21:25;107.70;;;2.90;;
8938;SDS011;4504;48.810;9.172;2023-06-24T10:24:11;107.67;;;2.50;;
8938;SDS011;4504;48.810;9.172;2023-06-24T10:26:40;110.50;;;3.03;;
8938;SDS011;4504;48.810;9.172;2023-06-24T10:29:10;109.37;;;2.40;;
8938;SDS011;4504;48.810;9.172;2023-06-24T10:31:50;107.07;;;2.60;;
8938;SDS011;4504;48.810;9.172;2023-06-24T10:34:28;107.67;;;2.50;;
8938;SDS011;4504;48.810;9.172;2023-06-24T10:36:59;107.70;;;2.60;;
8938;SDS011;4504;48.810;9.172;2023-06-24T10:39:37;106.50;;;2.20;;
8938;SDS011;4504;48.810;9.172;2023-06-24T10:42:26;107.70;;;2.50;;
8938;SDS011;4504;48.810;9.172;2023-06-24T10:44:54;106.80;;;2.50;;
8938;SDS011;4504;48.810;9.172;2023-06-24T10:47:22;106.60;;;2.40;;
8938;SDS011;4504;48.810;9.172;2023-06-24T10:49:49;105.07;;;2.17;;
8938;SDS011;4504;48.810;9.172;2023-06-24T10:52:18;106.50;;;2.30;;
8938;SDS011;4504;48.810;9.172;2023-06-24T10:54:46;104.57;;;1.87;;
8938;SDS011;4504;48.810;9.172;2023-06-24T10:57:13;103.47;;;2.17;;
8938;SDS011;4504;48.810;9.172;2023-06-24T10:59:43;102.77;;;2.33;;
8938;SDS011;4504;48.810;9.172;2023-06-24T11:02:14;102.00;;;1.90;;
8938;SDS011;4504;48.810;9.172;2023-06-24T11:04:42;101.30;;;1.97;;
8938;SDS011;4504;48.810;9.172;2023-06-24T11:07:10;102.20;;;2.37;;
8938;SDS011;4504;48.810;9.172;2023-06-24T11:09:37;101.87;;;1.97;;
8938;SDS011;4504;48.810;9.172;2023-06-24T11:12:05;102.13;;;2.00;;
8938;SDS011;4504;48.810;9.172;2023-06-24T11:14:34;100.70;;;1.80;;
8938;SDS011;4504;48.810;9.172;2023-06-24T11:17:03;99.40;;;1.87;;
8938;SDS011;4504;48.810;9.172;2023-06-24T11:19:30;103.67;;;2.07;;
8938;SDS011;4504;48.810;9.172;2023-06-24T11:22:01;99.10;;;1.60;;
8938;SDS011;4504;48.810;9.172;2023-06-24T11:24:28;99.90;;;2.10;;
8938;SDS011;4504;48.810;9.172;2023-06-24T11:26:55;100.60;;;1.80;;
8938;SDS011;4504;48.810;9.172;2023-06-24T11:29:22;100.77;;;1.97;;
8938;SDS011;4504;48.810;9.172;2023-06-24T11:31:50;100.17;;;2.20;;
8938;SDS011;4504;48.810;9.172;2023-06-24T11:34:18;99.00;;;1.90;;
8938;SDS011;4504;48.810;9.172;2023-06-24T11:36:45;99.40;;;1.80;;
8938;SDS011;4504;48.810;9.172;2023-06-24T11:39:21;109.30;;;2.10;;
8938;SDS011;4504;48.810;9.172;2023-06-24T11:41:49;100.43;;;2.20;;
8938;SDS011;4504;48.810;9.172;2023-06-24T11:44:17;101.40;;;2.30;;
8938;SDS011;4504;48.810;9.172;2023-06-24T11:46:45;100.40;;;2.07;;
8938;SDS011;4504;48.810;9.172;2023-06-24T11:49:13;100.47;;;1.93;;
8938;SDS011;4504;48.810;9.172;2023-06-24T11:51:51;100.30;;;1.60;;
8938;SDS011;4504;48.810;9.172;2023-06-24T11:54:19;102.73;;;2.17;;
8938;SDS011;4504;48.810;9.172;2023-06-24T11:56:49;100.67;;;1.93;;
8938;SDS011;4504;48.810;9.172;2023-06-24T11:59:17;100.20;;;2.00;;
8938;SDS011;4504;48.810;9.172;2023-06-24T12:01:52;100.20;;;2.23;;
8938;SDS011;4504;48.810;9.172;2023-06-24T12:04:20;99.77;;;2.40;;
8938;SDS011;4504;48.810;9.172;2023-06-24T12:06:48;98.43;;;1.93;;
8938;SDS011;4504;48.810;9.172;2023-06-24T12:09:16;98.57;;;1.83;;
8938;SDS011;4504;48.810;9.172;2023-06-24T12:11:43;99.37;;;2.17;;
8938;SDS011;4504;48.810;9.172;2023-06-24T12:14:11;99.10;;;2.00;;
8938;SDS011;4504;48.810;9.172;2023-06-24T12:16:38;98.70;;;1.90;;
8938;SDS011;4504;48.810;9.172;2023-06-24T12:19:06;98.27;;;1.57;;
8938;SDS011;4504;48.810;9.172;2023-06-24T12:21:33;97.47;;;1.80;;
8938;SDS011;4504;48.810;9.172;2023-06-24T12:24:00;96.67;;;1.90;;
8938;SDS011;4504;48.810;9.172;2023-06-24T12:26:28;97.13;;;1.80;;
8938;SDS011;4504;48.810;9.172;2023-06-24T12:28:55;97.93;;;2.00;;
8938;SDS011;4504;48.810;9.172;2023-06-24T12:31:23;98.00;;;2.00;;
8938;SDS011;4504;48.810;9.172;2023-06-24T12:33:50;97.17;;;1.57;;
8938;SDS011;4504;48.810;9.172;2023-06-24T12:36:17;97.10;;;1.77;;
8938;SDS011;4504;48.810;9.172;2023-06-24T12:38:44;95.87;;;1.50;;
8938;SDS011;4504;48.810;9.172;2023-06-24T12:41:11;97.67;;;1.87;;
8938;SDS011;4504;48.810;9.172;2023-06-24T12:43:39;96.77;;;1.77;;
8938;SDS011;4504;48.810;9.172;2023-06-24T12:46:06;98.73;;;1.93;;
8938;SDS011;4504;48.810;9.172;2023-06-24T12:48:33;97.87;;;2.13;;
8938;SDS011;4504;48.810;9.172;2023-06-24T12:51:00;97.50;;;1.70;;
8938;SDS011;4504;48.810;9.172;2023-06-24T12:53:27;108.30;;;3.37;;
8938;SDS011;4504;48.810;9.172;2023-06-24T12:55:54;97.87;;;1.70;;
8938;SDS011;4504;48.810;9.172;2023-06-24T12:58:22;96.67;;;1.80;;
8938;SDS011;4504;48.810;9.172;2023-06-24T13:00:51;97.20;;;2.00;;
8938;SDS011;4504;48.810;9.172;2023-06-24T13:03:18;95.97;;;1.77;;
8938;SDS011;4504;48.810;9.172;2023-06-24T13:05:45;95.37;;;2.00;;
8938;SDS011;4504;48.810;9.172;2023-06-24T13:08:12;96.00;;;1.90;;
8938;SDS011;4504;48.810;9.172;2023-06-24T13:10:40;96.07;;;2.03;;
8938;SDS011;4504;48.810;9.172;2023-06-24T13:13:07;96.10;;;2.07;;
8938;SDS011;4504;48.810;9.172;2023-06-24T13:15:34;96.37;;;2.00;;
8938;SDS011;4504;48.810;9.172;2023-06-24T13:18:03;95.13;;;1.80;;
8938;SDS011;4504;48.810;9.172;2023-06-24T13:20:30;95.57;;;1.60;;
8938;SDS011;4504;48.810;9.172;2023-06-24T13:22:57;94.77;;;1.40;;
8938;SDS011;4504;48.810;9.172;2023-06-24T13:25:24;93.80;;;1.50;;
8938;SDS011;4504;48.810;9.172;2023-06-24T13:27:51;95.13;;;2.10;;
8938;SDS011;4504;48.810;9.172;2023-06-24T13:30:19;93.00;;;1.63;;
8938;SDS011;4504;48.810;9.172;2023-06-24T13:32:46;93.37;;;1.40;;
8938;SDS011;4504;48.810;9.172;2023-06-24T13:35:15;93.50;;;1.40;;
8938;SDS011;4504;48.810;9.172;2023-06-24T13:37:42;94.30;;;2.13;;
8938;SDS011;4504;48.810;9.172;2023-06-24T13:40:10;95.07;;;1.63;;
8938;SDS011;4504;48.810;9.172;2023-06-24T13:42:37;94.50;;;1.77;;
8938;SDS011;4504;48.810;9.172;2023-06-24T13:45:04;95.20;;;2.07;;
8938;SDS011;4504;48.810;9.172;2023-06-24T13:47:32;95.27;;;2.00;;
8938;SDS011;4504;48.810;9.172;2023-06-24T13:49:59;95.70;;;1.90;;
8938;SDS011;4504;48.810;9.172;2023-06-24T13:52:27;96.47;;;2.10;;
8938;SDS011;4504;48.810;9.172;2023-06-24T13:54:54;95.10;;;1.87;;
8938;SDS011;4504;48.810;9.172;2023-06-24T13:57:21;95.00;;;1.87;;
8938;SDS011;4504;48.810;9.172;2023-06-24T13:59:48;94.93;;;1.67;;
8938;SDS011;4504;48.810;9.172;2023-06-24T14:02:15;95.10;;;1.50;;
8938;SDS011;4504;48.810;9.172;2023-06-24T14:04:42;95.57;;;2.00;;
8938;SDS011;4504;48.810;9.172;2023-06-24T14:07:09;94.87;;;1.77;;
8938;SDS011;4504;48.810;9.172;2023-06-24T14:09:37;97.07;;;1.80;;
8938;SDS011;4504;48.810;9.172;2023-06-24T14:12:05;95.57;;;1.80;;
8938;SDS011;4504;48.810;9.172;2023-06-24T14:14:33;96.57;;;1.90;;
8938;SDS011;4504;48.810;9.172;2023-06-24T14:17:00;96.37;;;1.80;;
8938;SDS011;4504;48.810;9.172;2023-06-24T14:19:27;97.33;;;2.43;;
8938;SDS011;4504;48.810;9.172;2023-06-24T14:21:54;96.63;;;1.90;;
8938;SDS011;4504;48.810;9.172;2023-06-24T14:24:22;95.67;;;1.67;;
8938;SDS011;4504;48.810;9.172;2023-06-24T14:26:51;96.43;;;1.90;;
8938;SDS011;4504;48.810;9.172;2023-06-24T14:29:18;96.63;;;1.90;;
8938;SDS011;4504;48.810;9.172;2023-06-24T14:31:45;99.30;;;2.20;;
8938;SDS011;4504;48.810;9.172;2023-06-24T14:34:12;98.40;;;2.50;;
8938;SDS011;4504;48.810;9.172;2023-06-24T14:36:39;97.10;;;1.83;;
8938;SDS011;4504;48.810;9.172;2023-06-24T14:39:06;96.50;;;1.83;;
8938;SDS011;4504;48.810;9.172;2023-06-24T14:41:33;97.10;;;1.87;;
8938;SDS011;4504;48.810;9.172;2023-06-24T14:44:01;96.27;;;1.97;;
8938;SDS011;4504;48.810;9.172;2023-06-24T14:46:28;97.20;;;1.70;;
8938;SDS011;4504;48.810;9.172;2023-06-24T14:48:55;97.10;;;1.80;;
8938;SDS011;4504;48.810;9.172;2023-06-24T14:51:23;97.73;;;1.70;;
8938;SDS011;4504;48.810;9.172;2023-06-24T14:53:50;98.50;;;2.17;;
8938;SDS011;4504;48.810;9.172;2023-06-24T14:56:17;97.30;;;1.70;;
8938;SDS011;4504;48.810;9.172;2023-06-24T14:58:44;98.90;;;2.10;;
8938;SDS011;4504;48.810;9.172;2023-06-24T15:01:12;98.57;;;1.63;;
8938;SDS011;4504;48.810;9.172;2023-06-24T15:03:39;99.40;;;1.90;;
8938;SDS011;4504;48.810;9.172;2023-06-24T15:06:06;99.27;;;1.80;;
8938;SDS011;4504;48.810;9.172;2023-06-24T15:08:33;97.77;;;2.10;;
8938;SDS011;4504;48.810;9.172;2023-06-24T15:11:00;97.53;;;2.07;;
8938;SDS011;4504;48.810;9.172;2023-06-24T15:13:27;98.10;;;2.00;;
8938;SDS011;4504;48.810;9.172;2023-06-24T15:15:54;97.40;;;1.70;;
8938;SDS011;4504;48.810;9.172;2023-06-24T15:18:24;97.37;;;2.00;;
8938;SDS011;4504;48.810;9.172;2023-06-24T15:20:51;98.57;;;1.63;;
8938;SDS011;4504;48.810;9.172;2023-06-24T15:23:19;98.00;;;2.00;;
8938;SDS011;4504;48.810;9.172;2023-06-24T15:25:46;98.97;;;1.80;;
8938;SDS011;4504;48.810;9.172;2023-06-24T15:28:15;98.00;;;1.70;;
8938;SDS011;4504;48.810;9.172;2023-06-24T15:30:42;98.10;;;2.10;;
8938;SDS011;4504;48.810;9.172;2023-06-24T15:33:09;98.77;;;2.20;;
8938;SDS011;4504;48.810;9.172;2023-06-24T15:35:37;98.20;;;2.00;;
8938;SDS011;4504;48.810;9.172;2023-06-24T15:38:04;97.77;;;1.80;;
8938;SDS011;4504;48.810;9.172;2023-06-24T15:40:31;101.17;;;2.10;;
8938;SDS011;4504;48.810;9.172;2023-06-24T15:42:58;98.20;;;1.83;;
8938;SDS011;4504;48.810;9.172;2023-06-24T15:45:25;98.13;;;1.80;;
8938;SDS011;4504;48.810;9.172;2023-06-24T15:47:53;98.37;;;1.80;;
8938;SDS011;4504;48.810;9.172;2023-06-24T15:50:20;99.40;;;2.33;;
8938;SDS011;4504;48.810;9.172;2023-06-24T15:52:48;101.37;;;2.20;;
8938;SDS011;4504;48.810;9.172;2023-06-24T15:55:15;97.90;;;1.80;;
8938;SDS011;4504;48.810;9.172;2023-06-24T15:57:42;98.60;;;1.70;;
8938;SDS011;4504;48.810;9.172;2023-06-24T16:00:09;99.43;;;2.07;;
8938;SDS011;4504;48.810;9.172;2023-06-24T16:02:38;98.50;;;1.63;;
8938;SDS011;4504;48.810;9.172;2023-06-24T16:05:05;98.73;;;1.70;;
8938;SDS011;4504;48.810;9.172;2023-06-24T16:07:33;98.00;;;1.80;;
8938;SDS011;4504;48.810;9.172;2023-06-24T16:10:02;98.67;;;1.70;;
8938;SDS011;4504;48.810;9.172;2023-06-24T16:12:30;98.00;;;1.70;;
8938;SDS011;4504;48.810;9.172;2023-06-24T16:14:57;98.50;;;1.87;;
8938;SDS011;4504;48.810;9.172;2023-06-24T16:17:24;98.70;;;1.80;;
8938;SDS011;4504;48.810;9.172;2023-06-24T16:19:51;98.40;;;1.80;;
8938;SDS011;4504;48.810;9.172;2023-06-24T16:22:18;99.60;;;1.90;;
8938;SDS011;4504;48.810;9.172;2023-06-24T16:24:45;99.10;;;1.90;;
8938;SDS011;4504;48.810;9.172;2023-06-24T16:27:13;99.27;;;1.90;;
8938;SDS011;4504;48.810;9.172;2023-06-24T16:29:40;98.37;;;1.90;;
8938;SDS011;4504;48.810;9.172;2023-06-24T16:32:07;99.50;;;2.03;;
8938;SDS011;4504;48.810;9.172;2023-06-24T16:34:34;101.93;;;2.30;;
8938;SDS011;4504;48.810;9.172;2023-06-24T16:37:01;99.17;;;1.90;;
8938;SDS011;4504;48.810;9.172;2023-06-24T16:39:28;99.90;;;2.00;;
8938;SDS011;4504;48.810;9.172;2023-06-24T16:41:55;99.53;;;1.97;;
8938;SDS011;4504;48.810;9.172;2023-06-24T16:44:23;98.93;;;1.73;;
8938;SDS011;4504;48.810;9.172;2023-06-24T16:46:51;100.47;;;1.80;;
8938;SDS011;4504;48.810;9.172;2023-06-24T16:49:18;100.07;;;1.97;;
8938;SDS011;4504;48.810;9.172;2023-06-24T16:51:45;100.37;;;1.80;;
8938;SDS011;4504;48.810;9.172;2023-06-24T16:54:12;100.30;;;1.80;;
8938;SDS011;4504;48.810;9.172;2023-06-24T16:56:39;100.27;;;1.80;;
8938;SDS011;4504;48.810;9.172;2023-06-24T16:59:06;105.47;;;2.30;;
8938;SDS011;4504;48.810;9.172;2023-06-24T17:01:34;102.80;;;2.43;;
8938;SDS011;4504;48.810;9.172;2023-06-24T17:04:01;101.17;;;2.17;;
8938;SDS011;4504;48.810;9.172;2023-06-24T17:06:28;100.87;;;2.17;;
8938;SDS011;4504;48.810;9.172;2023-06-24T17:08:55;101.07;;;1.93;;
8938;SDS011;4504;48.810;9.172;2023-06-24T17:11:23;100.97;;;2.37;;
8938;SDS011;4504;48.810;9.172;2023-06-24T17:13:50;100.47;;;2.07;;
8938;SDS011;4504;48.810;9.172;2023-06-24T17:16:16;100.73;;;1.90;;
8938;SDS011;4504;48.810;9.172;2023-06-24T17:18:45;100.40;;;1.80;;
8938;SDS011;4504;48.810;9.172;2023-06-24T17:21:12;99.97;;;1.90;;
8938;SDS011;4504;48.810;9.172;2023-06-24T17:23:39;100.90;;;1.93;;
8938;SDS011;4504;48.810;9.172;2023-06-24T17:26:06;102.33;;;2.27;;
8938;SDS011;4504;48.810;9.172;2023-06-24T17:28:33;101.27;;;1.97;;
8938;SDS011;4504;48.810;9.172;2023-06-24T17:31:00;102.93;;;2.10;;
8938;SDS011;4504;48.810;9.172;2023-06-24T17:33:27;100.97;;;2.60;;
8938;SDS011;4504;48.810;9.172;2023-06-24T17:35:55;101.07;;;2.00;;
8938;SDS011;4504;48.810;9.172;2023-06-24T17:38:22;100.50;;;1.93;;
8938;SDS011;4504;48.810;9.172;2023-06-24T17:40:49;101.67;;;2.23;;
8938;SDS011;4504;48.810;9.172;2023-06-24T17:43:16;101.40;;;2.00;;
8938;SDS011;4504;48.810;9.172;2023-06-24T17:45:43;101.10;;;1.93;;
8938;SDS011;4504;48.810;9.172;2023-06-24T17:48:10;101.53;;;2.30;;
8938;SDS011;4504;48.810;9.172;2023-06-24T17:50:37;101.57;;;1.93;;
8938;SDS011;4504;48.810;9.172;2023-06-24T17:53:05;102.20;;;2.20;;
8938;SDS011;4504;48.810;9.172;2023-06-24T17:55:32;102.70;;;2.30;;
8938;SDS011;4504;48.810;9.172;2023-06-24T17:58:01;102.10;;;1.90;;
8938;SDS011;4504;48.810;9.172;2023-06-24T18:00:28;100.77;;;1.87;;
8938;SDS011;4504;48.810;9.172;2023-06-24T18:03:01;101.97;;;2.03;;
8938;SDS011;4504;48.810;9.172;2023-06-24T18:05:28;101.97;;;1.80;;
8938;SDS011;4504;48.810;9.172;2023-06-24T18:07:55;102.93;;;2.20;;
8938;SDS011;4504;48.810;9.172;2023-06-24T18:10:24;102.47;;;1.93;;
8938;SDS011;4504;48.810;9.172;2023-06-24T18:12:51;103.50;;;2.30;;
8938;SDS011;4504;48.810;9.172;2023-06-24T18:15:18;102.57;;;2.10;;
8938;SDS011;4504;48.810;9.172;2023-06-24T18:17:45;102.83;;;2.27;;
8938;SDS011;4504;48.810;9.172;2023-06-24T18:20:12;102.17;;;2.20;;
8938;SDS011;4504;48.810;9.172;2023-06-24T18:22:39;102.97;;;2.10;;
8938;SDS011;4504;48.810;9.172;2023-06-24T18:25:06;104.37;;;2.37;;
8938;SDS011;4504;48.810;9.172;2023-06-24T18:27:34;103.20;;;2.03;;
8938;SDS011;4504;48.810;9.172;2023-06-24T18:30:01;102.87;;;2.07;;
8938;SDS011;4504;48.810;9.172;2023-06-24T18:32:28;103.43;;;2.13;;
8938;SDS011;4504;48.810;9.172;2023-06-24T18:34:55;104.93;;;2.70;;
8938;SDS011;4504;48.810;9.172;2023-06-24T18:37:23;105.30;;;2.70;;
8938;SDS011;4504;48.810;9.172;2023-06-24T18:39:50;105.03;;;2.70;;
8938;SDS011;4504;48.810;9.172;2023-06-24T18:42:17;103.10;;;2.20;;
8938;SDS011;4504;48.810;9.172;2023-06-24T18:44:45;105.00;;;2.60;;
8938;SDS011;4504;48.810;9.172;2023-06-24T18:47:12;105.13;;;2.53;;
8938;SDS011;4504;48.810;9.172;2023-06-24T18:49:39;105.30;;;2.63;;
8938;SDS011;4504;48.810;9.172;2023-06-24T18:52:07;110.10;;;2.87;;
8938;SDS011;4504;48.810;9.172;2023-06-24T18:54:34;104.90;;;2.80;;
8938;SDS011;4504;48.810;9.172;2023-06-24T18:57:01;110.37;;;2.50;;
8938;SDS011;4504;48.810;9.172;2023-06-24T18:59:29;106.77;;;2.60;;
8938;SDS011;4504;48.810;9.172;2023-06-24T19:01:57;105.57;;;2.57;;
8938;SDS011;4504;48.810;9.172;2023-06-24T19:04:24;104.67;;;2.13;;
8938;SDS011;4504;48.810;9.172;2023-06-24T19:06:51;105.27;;;2.50;;
8938;SDS011;4504;48.810;9.172;2023-06-24T19:09:18;105.03;;;2.60;;
8938;SDS011;4504;48.810;9.172;2023-06-24T19:11:46;105.77;;;2.40;;
8938;SDS011;4504;48.810;9.172;2023-06-24T19:14:13;105.47;;;2.17;;
8938;SDS011;4504;48.810;9.172;2023-06-24T19:16:39;106.17;;;2.60;;
8938;SDS011;4504;48.810;9.172;2023-06-24T19:19:08;104.33;;;2.30;;
8938;SDS011;4504;48.810;9.172;2023-06-24T19:21:35;106.10;;;2.57;;
8938;SDS011;4504;48.810;9.172;2023-06-24T19:24:02;107.13;;;2.70;;
8938;SDS011;4504;48.810;9.172;2023-06-24T19:26:29;106.07;;;2.53;;
8938;SDS011;4504;48.810;9.172;2023-06-24T19:28:56;107.20;;;3.03;;
8938;SDS011;4504;48.810;9.172;2023-06-24T19:31:23;105.43;;;2.60;;
8938;SDS011;4504;48.810;9.172;2023-06-24T19:33:50;105.90;;;2.27;;
8938;SDS011;4504;48.810;9.172;2023-06-24T19:36:18;105.27;;;2.20;;
8938;SDS011;4504;48.810;9.172;2023-06-24T19:38:45;106.57;;;2.30;;
8938;SDS011;4504;48.810;9.172;2023-06-24T19:41:12;106.73;;;2.50;;
8938;SDS011;4504;48.810;9.172;2023-06-24T19:43:39;106.17;;;2.30;;
8938;SDS011;4504;48.810;9.172;2023-06-24T19:46:06;107.80;;;2.97;;
8938;SDS011;4504;48.810;9.172;2023-06-24T19:48:33;106.20;;;2.40;;
8938;SDS011;4504;48.810;9.172;2023-06-24T19:51:00;105.87;;;2.10;;
8938;SDS011;4504;48.810;9.172;2023-06-24T19:53:28;110.07;;;2.53;;
8938;SDS011;4504;48.810;9.172;2023-06-24T19:55:55;106.13;;;2.53;;
8938;SDS011;4504;48.810;9.172;2023-06-24T19:58:22;105.47;;;2.30;;
8938;SDS011;4504;48.810;9.172;2023-06-24T20:00:49;106.00;;;2.30;;
8938;SDS011;4504;48.810;9.172;2023-06-24T20:03:16;105.97;;;2.40;;
8938;SDS011;4504;48.810;9.172;2023-06-24T20:05:43;106.37;;;2.70;;
8938;SDS011;4504;48.810;9.172;2023-06-24T20:08:10;106.67;;;2.53;;
8938;SDS011;4504;48.810;9.172;2023-06-24T20:10:38;107.37;;;3.07;;
8938;SDS011;4504;48.810;9.172;2023-06-24T20:13:05;112.60;;;2.80;;
8938;SDS011;4504;48.810;9.172;2023-06-24T20:15:32;107.30;;;2.70;;
8938;SDS011;4504;48.810;9.172;2023-06-24T20:17:59;105.50;;;2.10;;
8938;SDS011;4504;48.810;9.172;2023-06-24T20:20:26;106.83;;;2.53;;
8938;SDS011;4504;48.810;9.172;2023-06-24T20:22:53;107.73;;;2.97;;
8938;SDS011;4504;48.810;9.172;2023-06-24T20:25:21;107.53;;;3.00;;
8938;SDS011;4504;48.810;9.172;2023-06-24T20:27:49;107.67;;;2.60;;
8938;SDS011;4504;48.810;9.172;2023-06-24T20:30:16;107.77;;;2.73;;
8938;SDS011;4504;48.810;9.172;2023-06-24T20:32:43;107.23;;;2.47;;
8938;SDS011;4504;48.810;9.172;2023-06-24T20:35:10;106.30;;;2.73;;
8938;SDS011;4504;48.810;9.172;2023-06-24T20:37:39;106.77;;;2.50;;
8938;SDS011;4504;48.810;9.172;2023-06-24T20:40:07;107.20;;;2.50;;
8938;SDS011;4504;48.810;9.172;2023-06-24T20:42:34;110.97;;;2.70;;
8938;SDS011;4504;48.810;9.172;2023-06-24T20:45:03;106.80;;;2.47;;
8938;SDS011;4504;48.810;9.172;2023-06-24T20:47:30;108.37;;;2.60;;
8938;SDS011;4504;48.810;9.172;2023-06-24T20:49:57;108.10;;;2.70;;
8938;SDS011;4504;48.810;9.172;2023-06-24T20:52:24;108.07;;;2.63;;
8938;SDS011;4504;48.810;9.172;2023-06-24T20:54:51;107.90;;;2.50;;
8938;SDS011;4504;48.810;9.172;2023-06-24T20:57:18;107.13;;;2.37;;
8938;SDS011;4504;48.810;9.172;2023-06-24T20:59:45;107.77;;;3.10;;
8938;SDS011;4504;48.810;9.172;2023-06-24T21:02:14;108.63;;;2.90;;
8938;SDS011;4504;48.810;9.172;2023-06-24T21:04:40;109.77;;;2.93;;
8938;SDS011;4504;48.810;9.172;2023-06-24T21:07:07;108.00;;;2.40;;
8938;SDS011;4504;48.810;9.172;2023-06-24T21:09:34;109.33;;;2.90;;
8938;SDS011;4504;48.810;9.172;2023-06-24T21:12:01;108.60;;;2.90;;
8938;SDS011;4504;48.810;9.172;2023-06-24T21:14:29;109.47;;;3.20;;
8938;SDS011;4504;48.810;9.172;2023-06-24T21:16:56;109.57;;;2.70;;
8938;SDS011;4504;48.810;9.172;2023-06-24T21:19:24;109.20;;;3.17;;
8938;SDS011;4504;48.810;9.172;2023-06-24T21:21:51;108.17;;;2.70;;
8938;SDS011;4504;48.810;9.172;2023-06-24T21:24:18;108.97;;;3.23;;
8938;SDS011;4504;48.810;9.172;2023-06-24T21:26:45;110.33;;;4.07;;
8938;SDS011;4504;48.810;9.172;2023-06-24T21:29:12;109.93;;;3.23;;
8938;SDS011;4504;48.810;9.172;2023-06-24T21:31:39;111.80;;;3.07;;
8938;SDS011;4504;48.810;9.172;2023-06-24T21:34:06;107.97;;;3.00;;
8938;SDS011;4504;48.810;9.172;2023-06-24T21:36:35;109.80;;;3.37;;
8938;SDS011;4504;48.810;9.172;2023-06-24T21:39:02;110.77;;;3.20;;
8938;SDS011;4504;48.810;9.172;2023-06-24T21:41:29;110.37;;;3.00;;
8938;SDS011;4504;48.810;9.172;2023-06-24T21:43:56;109.87;;;3.17;;
8938;SDS011;4504;48.810;9.172;2023-06-24T21:46:23;108.87;;;2.90;;
8938;SDS011;4504;48.810;9.172;2023-06-24T21:48:50;110.30;;;3.30;;
8938;SDS011;4504;48.810;9.172;2023-06-24T21:51:17;110.20;;;2.90;;
8938;SDS011;4504;48.810;9.172;2023-06-24T21:53:45;111.50;;;3.53;;
8938;SDS011;4504;48.810;9.172;2023-06-24T21:56:12;109.77;;;2.87;;
8938;SDS011;4504;48.810;9.172;2023-06-24T21:58:39;111.57;;;3.50;;
8938;SDS011;4504;48.810;9.172;2023-06-24T22:01:06;109.77;;;2.97;;